This is the latest recevied weather packets stored in our database for station/object 9W2CEW-1. If no packets are shown the sender has not sent any weather packets the latest 10 day(s).
| Time | Temp. | Humidity | Pressure | Rain* | Wind** | Luminosity | Snow |
|---|---|---|---|---|---|---|---|
| 1787899112 | 37.78° C | 40% | 1004.1 hPa | - | - | - | - |
| 1787898212 | 37.78° C | 40% | 1004.2 hPa | - | - | - | - |
| 1787897311 | 38.33° C | 39% | 1004.4 hPa | - | - | - | - |
| 1787896411 | 37.78° C | 39% | 1004.6 hPa | - | - | - | - |
| 1787895511 | 37.78° C | 38% | 1005 hPa | - | - | - | - |
| 1787894611 | 36.11° C | 43% | 1005 hPa | - | - | - | - |
| 1787893711 | 37.78° C | 40% | 1005.4 hPa | - | - | - | - |
| 1787892811 | 37.78° C | 40% | 1005.4 hPa | - | - | - | - |
| 1787891911 | 37.78° C | 39% | 1005.6 hPa | - | - | - | - |
| 1787891011 | 40.56° C | 35% | 1005.9 hPa | - | - | - | - |
| 1787890111 | 38.89° C | 38% | 1006.2 hPa | - | - | - | - |
| 1787889211 | 40° C | 36% | 1006.4 hPa | - | - | - | - |
| 1787888310 | 40.56° C | 34% | 1006.6 hPa | - | - | - | - |
| 1787887410 | 36.11° C | 43% | 1006.8 hPa | - | - | - | - |
| 1787886510 | 37.78° C | 41% | 1006.6 hPa | - | - | - | - |
| 1787885610 | 38.89° C | 37% | 1006.9 hPa | - | - | - | - |
| 1787884710 | 36.67° C | 41% | 1007 hPa | - | - | - | - |
| 1787883810 | 37.78° C | 40% | 1007 hPa | - | - | - | - |
| 1787882912 | 36.67° C | 41% | 1007.1 hPa | - | - | - | - |
| 1787882012 | 38.89° C | 37% | 1007.3 hPa | - | - | - | - |
| 1787881112 | 36.67° C | 40% | 1007.1 hPa | - | - | - | - |
| 1787880212 | 38.89° C | 36% | 1007.1 hPa | - | - | - | - |
| 1787879311 | 35.56° C | 42% | 1006.7 hPa | - | - | - | - |
| 1787878411 | 35° C | 42% | 1006.7 hPa | - | - | - | - |
| 1787877511 | 31.67° C | 50% | 1006.6 hPa | - | - | - | - |
* Rain since midnight (hover to see other rain measurements)
** Current wind speed in m/s (hover to see current wind gust speed)